createdAt,value
2022-12-16T00:01:06.204Z,83.05
2022-12-16T00:04:07.948Z,82.94
2022-12-16T00:07:13.332Z,83.12
2022-12-16T00:10:15.288Z,82.86
2022-12-16T00:13:16.907Z,82.87
2022-12-16T00:16:20.655Z,83.09
2022-12-16T00:19:22.386Z,83.06
2022-12-16T00:22:24.050Z,83.02
2022-12-16T00:25:25.694Z,83.09
2022-12-16T00:28:27.787Z,83.03
2022-12-16T00:31:29.576Z,83.06
2022-12-16T00:34:31.167Z,83.31
2022-12-16T00:37:32.900Z,83.08
2022-12-16T00:40:34.897Z,83.13
2022-12-16T00:43:36.809Z,82.96
2022-12-16T00:46:38.609Z,83.17
2022-12-16T00:49:43.450Z,82.90
2022-12-16T00:52:45.230Z,83.13
2022-12-16T00:55:47.529Z,82.84
2022-12-16T00:58:49.362Z,83.17
2022-12-16T01:01:51.885Z,83.08
2022-12-16T01:04:54.142Z,83.09
2022-12-16T01:07:57.385Z,83.10
2022-12-16T01:11:00.112Z,83.01
2022-12-16T01:14:01.938Z,82.83
2022-12-16T01:17:03.552Z,83.01
2022-12-16T01:20:06.147Z,82.97
2022-12-16T01:23:08.171Z,83.05
2022-12-16T01:26:10.650Z,83.14
2022-12-16T01:29:12.386Z,83.11
2022-12-16T01:32:16.168Z,83.20
2022-12-16T01:35:50.812Z,82.96
2022-12-16T01:38:42.499Z,82.91
2022-12-16T01:41:44.247Z,83.15
2022-12-16T01:44:46.864Z,83.17
2022-12-16T01:47:48.596Z,83.06
2022-12-16T01:50:50.665Z,83.21
2022-12-16T01:53:58.193Z,83.27
2022-12-16T01:57:07.169Z,83.06
2022-12-16T02:00:10.539Z,82.97
2022-12-16T02:03:12.370Z,82.88
2022-12-16T02:06:14.031Z,83.15
2022-12-16T02:09:16.660Z,83.24
2022-12-16T02:12:46.187Z,83.16
2022-12-16T02:16:16.963Z,83.06
2022-12-16T02:19:38.421Z,83.45
2022-12-16T02:23:10.816Z,83.32
2022-12-16T02:26:37.249Z,83.38
2022-12-16T02:30:05.003Z,83.39
2022-12-16T02:33:13.253Z,83.14
2022-12-16T02:36:30.397Z,83.10
2022-12-16T02:39:35.936Z,82.93
2022-12-16T02:43:04.546Z,83.14
2022-12-16T02:46:07.662Z,83.57
2022-12-16T02:49:32.819Z,83.25
2022-12-16T02:52:35.227Z,83.38
2022-12-16T02:56:15.833Z,83.42
2022-12-16T02:59:40.341Z,83.63
2022-12-16T03:02:49.590Z,83.43
2022-12-16T03:05:52.718Z,83.54
2022-12-16T03:08:57.203Z,83.50
2022-12-16T03:12:00.608Z,83.33
2022-12-16T03:15:02.963Z,83.77
2022-12-16T03:18:06.316Z,83.48
2022-12-16T03:21:08.940Z,83.55
2022-12-16T03:24:14.029Z,83.70
2022-12-16T03:27:20.942Z,83.33
2022-12-16T03:30:28.871Z,83.84
2022-12-16T03:33:38.879Z,83.72
2022-12-16T03:36:42.194Z,83.56
2022-12-16T03:39:49.936Z,83.55
2022-12-16T03:42:53.223Z,83.59
2022-12-16T03:45:57.976Z,83.50
2022-12-16T03:48:59.827Z,83.48
2022-12-16T03:52:01.571Z,83.58
2022-12-16T03:55:03.345Z,83.53
2022-12-16T03:58:05.023Z,83.56
2022-12-16T04:01:09.556Z,83.54
2022-12-16T04:04:11.490Z,83.79
2022-12-16T04:07:24.653Z,83.70
2022-12-16T04:10:45.546Z,83.17
2022-12-16T04:14:06.017Z,83.40
2022-12-16T04:17:31.116Z,83.35
2022-12-16T04:20:55.132Z,83.54
2022-12-16T04:24:16.168Z,83.20
2022-12-16T04:27:27.998Z,83.61
2022-12-16T04:30:34.589Z,83.43
2022-12-16T04:33:55.276Z,83.22
2022-12-16T04:37:17.901Z,83.46
2022-12-16T04:40:38.588Z,83.57
2022-12-16T04:43:59.835Z,83.35
2022-12-16T04:47:20.084Z,83.75
2022-12-16T04:50:40.480Z,83.45
2022-12-16T04:54:08.556Z,83.53
2022-12-16T04:57:29.132Z,83.56
2022-12-16T05:00:49.579Z,83.55
2022-12-16T05:04:09.822Z,83.65
2022-12-16T05:07:36.301Z,83.06
2022-12-16T05:10:58.384Z,82.63
2022-12-16T05:14:18.791Z,83.18
2022-12-16T05:17:40.046Z,83.15
2022-12-16T05:21:00.475Z,83.05
2022-12-16T05:24:21.059Z,83.04
2022-12-16T05:27:41.385Z,83.20
2022-12-16T05:31:01.867Z,83.42
2022-12-16T05:34:22.423Z,84.26
2022-12-16T05:37:42.760Z,84.82
2022-12-16T05:41:03.585Z,84.37
2022-12-16T05:44:24.462Z,83.61
2022-12-16T05:47:45.238Z,83.54
2022-12-16T05:51:05.642Z,83.43
2022-12-16T05:54:26.399Z,83.63
2022-12-16T05:57:46.761Z,83.93
2022-12-16T06:01:07.491Z,83.80
2022-12-16T06:04:27.942Z,83.48
2022-12-16T06:07:48.659Z,83.84
2022-12-16T06:11:09.240Z,84.42
2022-12-16T06:14:29.974Z,84.09
2022-12-16T06:17:50.197Z,83.74
2022-12-16T06:21:10.463Z,83.58
2022-12-16T06:24:30.926Z,83.72
2022-12-16T06:27:51.339Z,83.69
2022-12-16T06:31:11.896Z,83.67
2022-12-16T06:34:32.432Z,84.07
2022-12-16T06:37:52.768Z,84.65
2022-12-16T06:41:13.232Z,84.59
2022-12-16T06:44:33.650Z,84.15
2022-12-16T06:47:54.208Z,84.30
2022-12-16T06:51:14.657Z,84.27
2022-12-16T06:54:35.291Z,84.05
2022-12-16T06:57:55.712Z,84.15
2022-12-16T07:01:15.992Z,84.07
2022-12-16T07:04:36.446Z,84.18
2022-12-16T07:07:56.795Z,83.93
2022-12-16T07:11:17.675Z,84.00
2022-12-16T07:14:38.057Z,83.87
2022-12-16T07:17:59.560Z,83.93
2022-12-16T07:21:20.161Z,83.97
2022-12-16T07:24:40.715Z,83.91
2022-12-16T07:28:07.314Z,83.84
2022-12-16T07:31:30.272Z,84.05
2022-12-16T07:34:50.960Z,84.15
2022-12-16T07:38:11.423Z,83.94
2022-12-16T07:41:32.101Z,84.32
2022-12-16T07:44:52.638Z,83.82
2022-12-16T07:48:13.064Z,84.11
2022-12-16T07:51:33.389Z,84.00
2022-12-16T07:54:53.774Z,84.28
2022-12-16T07:58:16.171Z,83.81
2022-12-16T08:01:36.549Z,84.14
2022-12-16T08:04:56.788Z,84.01
2022-12-16T08:08:17.149Z,84.21
2022-12-16T08:11:37.494Z,84.10
2022-12-16T08:14:58.038Z,84.29
2022-12-16T08:18:18.636Z,84.15
2022-12-16T08:21:39.133Z,84.33
2022-12-16T08:24:59.675Z,84.16
2022-12-16T08:28:19.918Z,83.97
2022-12-16T08:31:40.390Z,83.96
2022-12-16T08:35:00.947Z,84.04
2022-12-16T08:38:21.499Z,84.00
2022-12-16T08:41:41.741Z,83.90
2022-12-16T08:45:02.004Z,83.80
2022-12-16T08:48:22.524Z,83.87
2022-12-16T08:51:43.103Z,83.93
2022-12-16T08:55:03.302Z,83.49
2022-12-16T08:58:23.803Z,83.90
2022-12-16T09:01:44.251Z,83.45
2022-12-16T09:05:04.612Z,83.39
2022-12-16T09:08:24.870Z,83.25
2022-12-16T09:11:45.525Z,83.70
2022-12-16T09:15:06.062Z,83.73
2022-12-16T09:18:26.729Z,83.73
2022-12-16T09:21:47.477Z,83.57
2022-12-16T09:25:11.790Z,83.78
2022-12-16T09:28:32.039Z,83.98
2022-12-16T09:31:52.581Z,83.72
2022-12-16T09:35:13.853Z,83.93
2022-12-16T09:38:34.738Z,83.82
2022-12-16T09:42:17.942Z,83.71
2022-12-16T09:45:45.636Z,83.85
2022-12-16T09:49:26.029Z,83.59
2022-12-16T09:52:47.769Z,83.51
2022-12-16T09:56:08.316Z,83.69
2022-12-16T09:59:32.710Z,83.75
2022-12-16T10:02:53.084Z,83.38
2022-12-16T10:06:28.443Z,83.55
2022-12-16T10:10:00.039Z,83.45
2022-12-16T10:13:42.864Z,83.76
2022-12-16T10:17:40.297Z,83.45
2022-12-16T10:21:08.639Z,83.37
2022-12-16T10:24:41.856Z,83.24
2022-12-16T10:28:08.186Z,83.48
2022-12-16T10:31:32.735Z,83.42
2022-12-16T10:34:54.535Z,83.20
2022-12-16T10:38:16.004Z,83.28
2022-12-16T10:41:37.294Z,83.22
2022-12-16T10:45:08.553Z,83.46
2022-12-16T10:48:30.453Z,83.58
2022-12-16T10:51:51.283Z,83.60
2022-12-16T10:55:37.802Z,83.37
2022-12-16T10:59:06.445Z,83.44
2022-12-16T11:02:38.411Z,83.04
2022-12-16T11:05:59.312Z,83.11
2022-12-16T11:09:52.273Z,83.05
2022-12-16T11:13:13.635Z,83.02
2022-12-16T11:16:46.098Z,82.88
2022-12-16T11:20:38.224Z,82.97
2022-12-16T11:23:58.648Z,82.76
2022-12-16T11:27:22.295Z,82.65
2022-12-16T11:30:42.989Z,82.80
2022-12-16T11:34:04.133Z,82.70
2022-12-16T11:37:24.544Z,82.82
2022-12-16T11:40:45.068Z,82.78
2022-12-16T11:44:09.167Z,82.69
2022-12-16T11:47:39.995Z,82.69
2022-12-16T11:51:09.305Z,82.68
2022-12-16T11:54:50.721Z,82.47
2022-12-16T11:58:29.486Z,82.54
2022-12-16T12:02:08.081Z,82.62
2022-12-16T12:05:33.274Z,83.01
2022-12-16T12:09:23.249Z,82.85
2022-12-16T12:12:55.504Z,83.03
2022-12-16T12:16:27.904Z,83.14
2022-12-16T12:20:12.357Z,82.83
2022-12-16T12:23:40.050Z,82.87
2022-12-16T12:27:05.645Z,83.04
2022-12-16T12:30:31.071Z,83.09
2022-12-16T12:34:10.356Z,83.21
2022-12-16T12:37:43.880Z,83.24
2022-12-16T12:41:44.148Z,83.02
2022-12-16T12:45:38.989Z,83.35
2022-12-16T12:49:09.682Z,83.39
2022-12-16T12:53:06.186Z,83.11
2022-12-16T12:57:01.243Z,83.20
2022-12-16T13:00:38.047Z,83.24
2022-12-16T13:04:22.962Z,83.17
2022-12-16T13:07:43.369Z,83.22
2022-12-16T13:11:03.683Z,83.07
2022-12-16T13:15:05.692Z,83.01
2022-12-16T13:18:26.074Z,83.31
2022-12-16T13:21:56.388Z,83.24
2022-12-16T13:25:22.299Z,83.09
2022-12-16T13:28:51.041Z,83.34
2022-12-16T13:32:20.266Z,83.23
2022-12-16T13:35:40.752Z,82.92
2022-12-16T13:39:09.377Z,83.18
2022-12-16T13:42:52.124Z,83.26
2022-12-16T13:46:18.963Z,83.06
2022-12-16T13:49:54.872Z,83.43
2022-12-16T13:53:17.669Z,83.11
2022-12-16T13:56:50.680Z,83.57
2022-12-16T14:00:12.026Z,83.33
2022-12-16T14:03:38.567Z,83.46
2022-12-16T14:06:59.627Z,83.42
2022-12-16T14:10:20.187Z,83.41
2022-12-16T14:13:40.381Z,83.53
2022-12-16T14:17:10.619Z,83.39
2022-12-16T14:20:35.910Z,83.27
2022-12-16T14:24:01.262Z,83.62
2022-12-16T14:27:49.501Z,83.33
2022-12-16T14:31:24.830Z,83.39
2022-12-16T14:34:54.068Z,83.42
2022-12-16T14:38:14.731Z,83.35
2022-12-16T14:41:40.414Z,83.44
2022-12-16T14:45:03.831Z,83.59
2022-12-16T14:48:43.180Z,83.56
2022-12-16T14:52:08.135Z,83.51
2022-12-16T14:55:36.636Z,83.49
2022-12-16T14:58:56.983Z,83.55
2022-12-16T15:02:27.567Z,83.47
2022-12-16T15:05:53.234Z,83.50
2022-12-16T15:09:16.894Z,83.69
2022-12-16T15:12:40.673Z,83.86
2022-12-16T15:16:04.393Z,83.57
2022-12-16T15:19:25.183Z,83.67
2022-12-16T15:22:45.910Z,83.69
2022-12-16T15:26:11.274Z,83.67
2022-12-16T15:29:50.486Z,83.48
2022-12-16T15:33:11.365Z,83.54
2022-12-16T15:36:52.297Z,83.52
2022-12-16T15:40:12.868Z,83.85
2022-12-16T15:43:40.490Z,83.30
2022-12-16T15:47:06.870Z,83.31
2022-12-16T15:50:31.884Z,83.87
2022-12-16T15:53:55.831Z,83.35
2022-12-16T15:57:16.382Z,83.47
2022-12-16T16:00:42.168Z,83.51
2022-12-16T16:04:11.458Z,83.36
2022-12-16T16:07:45.185Z,83.35
2022-12-16T16:11:06.183Z,83.58
2022-12-16T16:14:26.916Z,83.79
2022-12-16T16:17:47.330Z,83.71
2022-12-16T16:21:08.406Z,83.50
2022-12-16T16:24:29.213Z,83.59
2022-12-16T16:27:49.607Z,83.56
2022-12-16T16:31:10.136Z,83.61
2022-12-16T16:34:31.514Z,83.69
2022-12-16T16:37:51.989Z,83.48
2022-12-16T16:41:12.423Z,83.03
2022-12-16T16:44:33.435Z,82.91
2022-12-16T16:47:54.337Z,83.33
2022-12-16T16:51:16.468Z,83.10
2022-12-16T16:54:36.596Z,83.43
2022-12-16T16:57:57.339Z,83.38
2022-12-16T17:01:17.679Z,82.98
2022-12-16T17:04:38.716Z,83.45
2022-12-16T17:07:59.153Z,83.18
2022-12-16T17:11:19.413Z,84.11
2022-12-16T17:14:40.039Z,84.07
2022-12-16T17:18:00.934Z,83.50
2022-12-16T17:21:21.507Z,83.67
2022-12-16T17:24:46.990Z,83.96
2022-12-16T17:28:08.624Z,83.62
2022-12-16T17:31:29.617Z,83.65
2022-12-16T17:34:50.117Z,83.72
2022-12-16T17:38:10.398Z,83.61
2022-12-16T17:41:30.487Z,83.36
2022-12-16T17:44:50.893Z,83.44
2022-12-16T17:48:11.383Z,83.65
2022-12-16T17:51:31.777Z,83.51
2022-12-16T17:54:52.009Z,83.58
2022-12-16T17:58:12.522Z,83.59
2022-12-16T18:01:32.889Z,83.49
2022-12-16T18:04:53.574Z,83.68
2022-12-16T18:08:15.167Z,83.86
2022-12-16T18:11:38.717Z,83.66
2022-12-16T18:14:59.676Z,83.52
2022-12-16T18:18:20.530Z,83.28
2022-12-16T18:21:40.780Z,83.60
2022-12-16T18:25:01.788Z,83.23
2022-12-16T18:28:22.525Z,83.49
2022-12-16T18:31:42.946Z,83.62
2022-12-16T18:35:03.136Z,83.82
2022-12-16T18:38:23.958Z,83.67
2022-12-16T18:41:44.930Z,83.84
2022-12-16T18:45:11.098Z,83.78
2022-12-16T18:48:31.653Z,83.68
2022-12-16T18:51:52.871Z,83.33
2022-12-16T18:55:13.030Z,83.78
2022-12-16T19:02:13.917Z,83.59
2022-12-16T19:05:34.753Z,83.77
2022-12-16T19:08:55.119Z,83.71
2022-12-16T19:12:16.700Z,84.03
2022-12-16T19:15:41.205Z,84.48
2022-12-16T19:19:02.616Z,83.78
2022-12-16T19:22:23.308Z,83.50
2022-12-16T19:25:54.411Z,83.41
2022-12-16T19:29:17.007Z,83.38
2022-12-16T19:32:37.653Z,83.31
2022-12-16T19:36:14.929Z,83.51
2022-12-16T19:39:35.262Z,83.57
2022-12-16T19:42:55.919Z,83.69
2022-12-16T19:46:16.555Z,83.23
2022-12-16T19:49:42.360Z,83.76
2022-12-16T19:53:04.302Z,83.62
2022-12-16T19:56:25.216Z,83.64
2022-12-16T19:59:45.521Z,83.67
2022-12-16T20:03:06.420Z,83.81
2022-12-16T20:06:28.165Z,84.01
2022-12-16T20:09:48.468Z,84.50
2022-12-16T20:13:09.035Z,83.81
2022-12-16T20:16:31.086Z,83.41
2022-12-16T20:19:51.480Z,83.66
2022-12-16T20:23:14.431Z,83.69
2022-12-16T20:26:34.694Z,83.70
2022-12-16T20:29:56.452Z,83.58
2022-12-16T20:33:17.202Z,83.46
2022-12-16T20:36:38.114Z,83.82
2022-12-16T20:39:58.750Z,83.66
2022-12-16T20:43:19.484Z,83.72
2022-12-16T20:46:39.894Z,83.57
2022-12-16T20:50:00.454Z,83.65
2022-12-16T20:53:20.861Z,84.18
2022-12-16T20:56:41.359Z,84.15
2022-12-16T21:00:02.208Z,83.97
2022-12-16T21:03:44.351Z,83.80
2022-12-16T21:07:05.252Z,83.55
2022-12-16T21:10:26.161Z,83.72
2022-12-16T21:13:46.925Z,83.67
2022-12-16T21:17:07.553Z,83.43
2022-12-16T21:20:28.378Z,83.70
2022-12-16T21:23:49.020Z,83.58
2022-12-16T21:27:09.481Z,84.01
2022-12-16T21:30:30.236Z,84.05
2022-12-16T21:33:51.366Z,84.03
2022-12-16T21:37:12.224Z,83.76
2022-12-16T21:40:32.988Z,83.62
2022-12-16T21:43:53.427Z,83.94
2022-12-16T21:47:13.653Z,84.01
2022-12-16T21:50:35.732Z,83.77
2022-12-16T21:53:56.145Z,83.57
2022-12-16T21:57:17.422Z,84.09
2022-12-16T22:00:38.016Z,83.68
2022-12-16T22:03:58.578Z,83.99
2022-12-16T22:07:19.292Z,83.93
2022-12-16T22:10:40.181Z,83.86
2022-12-16T22:14:00.644Z,83.96
2022-12-16T22:17:21.483Z,83.66
2022-12-16T22:20:41.802Z,83.82
2022-12-16T22:24:02.185Z,84.00
2022-12-16T22:27:22.899Z,83.87
2022-12-16T22:30:44.956Z,83.75
2022-12-16T22:34:09.032Z,83.94
2022-12-16T22:37:30.206Z,83.55
2022-12-16T22:40:50.678Z,83.87
2022-12-16T22:44:10.896Z,83.86
2022-12-16T22:47:51.250Z,83.68
2022-12-16T22:51:12.231Z,84.09
2022-12-16T22:54:32.694Z,84.05
2022-12-16T22:57:53.510Z,84.10
2022-12-16T23:01:14.210Z,83.76
2022-12-16T23:04:35.039Z,83.73
2022-12-16T23:07:55.546Z,83.67
2022-12-16T23:11:18.451Z,83.88
2022-12-16T23:14:42.834Z,84.04
2022-12-16T23:18:03.552Z,84.13
2022-12-16T23:21:34.014Z,83.90
2022-12-16T23:24:54.548Z,83.92
2022-12-16T23:28:14.998Z,83.92
2022-12-16T23:31:35.244Z,84.04
2022-12-16T23:34:55.797Z,83.73
2022-12-16T23:38:23.486Z,83.93
2022-12-16T23:41:44.401Z,83.95
2022-12-16T23:45:04.745Z,84.07
2022-12-16T23:48:44.472Z,83.91
2022-12-16T23:52:04.854Z,83.94
2022-12-16T23:55:25.581Z,83.62
2022-12-16T23:58:46.025Z,84.02
